sensor_id;sensor_type;location;lat;lon;timestamp;pressure;altitude;pressure_sealevel;temperature;humidity
85922;BME280;76459;41.484;22.090;2024-02-23T00:02:18;99937.53;;;9.85;68.82
85922;BME280;76459;41.484;22.090;2024-02-23T00:04:44;99943.84;;;9.80;69.91
85922;BME280;76459;41.484;22.090;2024-02-23T00:07:10;99952.69;;;9.77;70.56
85922;BME280;76459;41.484;22.090;2024-02-23T00:09:37;99934.78;;;9.79;70.43
85922;BME280;76459;41.484;22.090;2024-02-23T00:12:03;99942.19;;;9.89;69.81
85922;BME280;76459;41.484;22.090;2024-02-23T00:14:31;99951.81;;;9.92;70.22
85922;BME280;76459;41.484;22.090;2024-02-23T00:16:57;99944.09;;;9.89;70.59
85922;BME280;76459;41.484;22.090;2024-02-23T00:19:24;99941.66;;;9.82;70.14
85922;BME280;76459;41.484;22.090;2024-02-23T00:21:50;99947.44;;;9.86;70.59
85922;BME280;76459;41.484;22.090;2024-02-23T00:24:18;99947.44;;;9.86;70.54
85922;BME280;76459;41.484;22.090;2024-02-23T00:26:46;99938.91;;;9.82;69.95
85922;BME280;76459;41.484;22.090;2024-02-23T00:29:12;99933.41;;;9.82;70.10
85922;BME280;76459;41.484;22.090;2024-02-23T00:31:39;99933.41;;;9.77;70.17
85922;BME280;76459;41.484;22.090;2024-02-23T00:34:07;99936.16;;;9.77;69.51
85922;BME280;76459;41.484;22.090;2024-02-23T00:36:38;99928.75;;;9.77;69.50
85922;BME280;76459;41.484;22.090;2024-02-23T00:39:04;99931.25;;;9.74;70.01
85922;BME280;76459;41.484;22.090;2024-02-23T00:41:29;99924.63;;;9.75;70.20
85922;BME280;76459;41.484;22.090;2024-02-23T00:43:55;99921.88;;;9.70;70.74
85922;BME280;76459;41.484;22.090;2024-02-23T00:46:21;99931.50;;;9.82;70.23
85922;BME280;76459;41.484;22.090;2024-02-23T00:48:46;99927.91;;;9.77;69.42
85922;BME280;76459;41.484;22.090;2024-02-23T00:51:12;99924.59;;;9.80;69.33
85922;BME280;76459;41.484;22.090;2024-02-23T00:53:38;99911.69;;;9.75;69.58
85922;BME280;76459;41.484;22.090;2024-02-23T00:56:04;99922.41;;;9.82;70.09
85922;BME280;76459;41.484;22.090;2024-02-23T00:58:29;99925.41;;;9.80;70.47
85922;BME280;76459;41.484;22.090;2024-02-23T01:00:55;99920.19;;;9.84;70.71
85922;BME280;76459;41.484;22.090;2024-02-23T01:03:21;99927.88;;;9.87;70.40
85922;BME280;76459;41.484;22.090;2024-02-23T01:05:46;99915.53;;;9.85;70.87
85922;BME280;76459;41.484;22.090;2024-02-23T01:08:12;99919.09;;;9.80;70.71
85922;BME280;76459;41.484;22.090;2024-02-23T01:10:37;99912.22;;;9.82;70.76
85922;BME280;76459;41.484;22.090;2024-02-23T01:13:03;99911.94;;;9.79;70.92
85922;BME280;76459;41.484;22.090;2024-02-23T01:15:30;99905.09;;;9.81;70.78
85922;BME280;76459;41.484;22.090;2024-02-23T01:17:56;99902.34;;;9.81;70.47
85922;BME280;76459;41.484;22.090;2024-02-23T01:20:21;99898.19;;;9.79;71.07
85922;BME280;76459;41.484;22.090;2024-02-23T01:22:47;99889.69;;;9.75;70.55
85922;BME280;76459;41.484;22.090;2024-02-23T01:25:13;99887.78;;;9.71;71.02
85922;BME280;76459;41.484;22.090;2024-02-23T01:27:41;99883.38;;;9.75;71.43
85922;BME280;76459;41.484;22.090;2024-02-23T01:30:07;99881.72;;;9.69;71.47
85922;BME280;76459;41.484;22.090;2024-02-23T01:32:33;99887.78;;;9.66;71.33
85922;BME280;76459;41.484;22.090;2024-02-23T01:34:59;99878.44;;;9.67;70.88
85922;BME280;76459;41.484;22.090;2024-02-23T01:37:24;99883.94;;;9.67;70.35
85922;BME280;76459;41.484;22.090;2024-02-23T01:39:50;99878.72;;;9.65;69.34
85922;BME280;76459;41.484;22.090;2024-02-23T01:42:16;99878.97;;;9.74;68.53
85922;BME280;76459;41.484;22.090;2024-02-23T01:44:41;99879.25;;;9.67;68.41
85922;BME280;76459;41.484;22.090;2024-02-23T01:47:07;99878.19;;;9.63;68.42
85922;BME280;76459;41.484;22.090;2024-02-23T01:49:33;99869.38;;;9.66;67.98
85922;BME280;76459;41.484;22.090;2024-02-23T01:52:00;99875.41;;;9.68;67.41
85922;BME280;76459;41.484;22.090;2024-02-23T01:54:26;99867.44;;;9.67;67.59
85922;BME280;76459;41.484;22.090;2024-02-23T01:56:55;99859.19;;;9.67;68.12
85922;BME280;76459;41.484;22.090;2024-02-23T01:59:21;99846.28;;;9.62;68.34
85922;BME280;76459;41.484;22.090;2024-02-23T02:01:47;99858.38;;;9.66;67.81
85922;BME280;76459;41.484;22.090;2024-02-23T02:04:13;99858.34;;;9.71;67.67
85922;BME280;76459;41.484;22.090;2024-02-23T02:06:39;99859.47;;;9.65;67.62
85922;BME280;76459;41.484;22.090;2024-02-23T02:09:05;99857.00;;;9.64;68.25
85922;BME280;76459;41.484;22.090;2024-02-23T02:11:31;99854.00;;;9.55;68.98
85922;BME280;76459;41.484;22.090;2024-02-23T02:13:56;99846.88;;;9.49;68.75
85922;BME280;76459;41.484;22.090;2024-02-23T02:16:22;99854.03;;;9.45;67.71
85922;BME280;76459;41.484;22.090;2024-02-23T02:18:48;99844.72;;;9.41;67.30
85922;BME280;76459;41.484;22.090;2024-02-23T02:21:13;99845.78;;;9.40;68.34
85922;BME280;76459;41.484;22.090;2024-02-23T02:23:39;99840.88;;;9.42;69.45
85922;BME280;76459;41.484;22.090;2024-02-23T02:26:04;99843.91;;;9.40;69.24
85922;BME280;76459;41.484;22.090;2024-02-23T02:28:30;99846.66;;;9.40;69.04
85922;BME280;76459;41.484;22.090;2024-02-23T02:30:56;99846.38;;;9.37;69.28
85922;BME280;76459;41.484;22.090;2024-02-23T02:33:22;99835.09;;;9.38;69.45
85922;BME280;76459;41.484;22.090;2024-02-23T02:35:48;99850.22;;;9.41;69.77
85922;BME280;76459;41.484;22.090;2024-02-23T02:38:15;99847.72;;;9.39;69.63
85922;BME280;76459;41.484;22.090;2024-02-23T02:40:41;99841.69;;;9.37;70.24
85922;BME280;76459;41.484;22.090;2024-02-23T02:43:07;99849.94;;;9.37;69.72
85922;BME280;76459;41.484;22.090;2024-02-23T02:45:33;99849.66;;;9.39;69.79
85922;BME280;76459;41.484;22.090;2024-02-23T02:48:00;99838.41;;;9.40;70.55
85922;BME280;76459;41.484;22.090;2024-02-23T02:50:27;99842.50;;;9.38;70.71
85922;BME280;76459;41.484;22.090;2024-02-23T02:52:53;99841.41;;;9.44;70.81
85922;BME280;76459;41.484;22.090;2024-02-23T02:55:18;99838.66;;;9.39;70.58
85922;BME280;76459;41.484;22.090;2024-02-23T02:57:44;99841.44;;;9.34;70.78
85922;BME280;76459;41.484;22.090;2024-02-23T03:00:10;99839.50;;;9.34;69.84
85922;BME280;76459;41.484;22.090;2024-02-23T03:02:36;99846.06;;;9.38;69.77
85922;BME280;76459;41.484;22.090;2024-02-23T03:05:02;99843.31;;;9.38;69.65
85922;BME280;76459;41.484;22.090;2024-02-23T03:07:28;99848.31;;;9.31;70.25
85922;BME280;76459;41.484;22.090;2024-02-23T03:09:53;99837.88;;;9.28;70.09
85922;BME280;76459;41.484;22.090;2024-02-23T03:12:19;99841.72;;;9.32;69.38
85922;BME280;76459;41.484;22.090;2024-02-23T03:14:45;99837.28;;;9.36;69.37
85922;BME280;76459;41.484;22.090;2024-02-23T03:17:11;99831.25;;;9.34;69.07
85922;BME280;76459;41.484;22.090;2024-02-23T03:19:37;99835.66;;;9.35;68.99
85922;BME280;76459;41.484;22.090;2024-02-23T03:22:03;99848.31;;;9.31;69.61
85922;BME280;76459;41.484;22.090;2024-02-23T03:24:29;99841.19;;;9.30;69.61
85922;BME280;76459;41.484;22.090;2024-02-23T03:26:54;99839.25;;;9.26;69.08
85922;BME280;76459;41.484;22.090;2024-02-23T03:29:21;99825.25;;;9.17;68.83
85922;BME280;76459;41.484;22.090;2024-02-23T03:31:50;99823.06;;;9.14;68.63
85922;BME280;76459;41.484;22.090;2024-02-23T03:34:16;99833.75;;;9.26;69.06
85922;BME280;76459;41.484;22.090;2024-02-23T03:36:42;99835.16;;;9.23;69.14
85922;BME280;76459;41.484;22.090;2024-02-23T03:39:08;99836.78;;;9.19;69.34
85922;BME280;76459;41.484;22.090;2024-02-23T03:41:33;99826.06;;;9.17;69.80
85922;BME280;76459;41.484;22.090;2024-02-23T03:43:59;99825.25;;;9.17;70.14
85922;BME280;76459;41.484;22.090;2024-02-23T03:46:25;99826.34;;;9.21;69.63
85922;BME280;76459;41.484;22.090;2024-02-23T03:48:50;99828.25;;;9.26;69.69
85922;BME280;76459;41.484;22.090;2024-02-23T03:51:17;99828.53;;;9.19;69.73
85922;BME280;76459;41.484;22.090;2024-02-23T03:53:43;99825.25;;;9.17;69.33
85922;BME280;76459;41.484;22.090;2024-02-23T03:56:08;99832.97;;;9.15;69.96
85922;BME280;76459;41.484;22.090;2024-02-23T03:58:34;99832.13;;;9.14;70.34
85922;BME280;76459;41.484;22.090;2024-02-23T04:00:59;99830.75;;;9.17;70.69
85922;BME280;76459;41.484;22.090;2024-02-23T04:03:25;99825.81;;;9.14;70.91
85922;BME280;76459;41.484;22.090;2024-02-23T04:05:50;99841.75;;;9.22;71.28
85922;BME280;76459;41.484;22.090;2024-02-23T04:08:16;99841.19;;;9.25;71.71
85922;BME280;76459;41.484;22.090;2024-02-23T04:10:42;99841.72;;;9.27;71.65
85922;BME280;76459;41.484;22.090;2024-02-23T04:13:07;99849.41;;;9.35;71.53
85922;BME280;76459;41.484;22.090;2024-02-23T04:15:33;99840.03;;;9.36;71.12
85922;BME280;76459;41.484;22.090;2024-02-23T04:17:59;99842.50;;;9.38;69.94
85922;BME280;76459;41.484;22.090;2024-02-23T04:20:25;99847.22;;;9.32;69.58
85922;BME280;76459;41.484;22.090;2024-02-23T04:22:50;99842.53;;;9.33;68.88
85922;BME280;76459;41.484;22.090;2024-02-23T04:25:16;99836.50;;;9.31;69.53
85922;BME280;76459;41.484;22.090;2024-02-23T04:27:41;99833.44;;;9.37;69.68
85922;BME280;76459;41.484;22.090;2024-02-23T04:30:09;99838.94;;;9.42;68.91
85922;BME280;76459;41.484;22.090;2024-02-23T04:32:35;99835.38;;;9.42;69.47
85922;BME280;76459;41.484;22.090;2024-02-23T04:35:01;99834.78;;;9.40;69.57
85922;BME280;76459;41.484;22.090;2024-02-23T04:37:27;99836.72;;;9.44;70.42
85922;BME280;76459;41.484;22.090;2024-02-23T04:39:53;99830.94;;;9.51;70.59
85922;BME280;76459;41.484;22.090;2024-02-23T04:42:18;99838.63;;;9.54;70.68
85922;BME280;76459;41.484;22.090;2024-02-23T04:44:44;99832.84;;;9.56;69.83
85922;BME280;76459;41.484;22.090;2024-02-23T04:47:09;99820.19;;;9.55;70.30
85922;BME280;76459;41.484;22.090;2024-02-23T04:49:35;99830.31;;;9.59;70.66
85922;BME280;76459;41.484;22.090;2024-02-23T04:52:01;99830.06;;;9.61;70.24
85922;BME280;76459;41.484;22.090;2024-02-23T04:54:26;99830.06;;;9.61;70.51
85922;BME280;76459;41.484;22.090;2024-02-23T04:56:52;99826.75;;;9.59;70.48
85922;BME280;76459;41.484;22.090;2024-02-23T04:59:17;99828.16;;;9.56;70.61
85922;BME280;76459;41.484;22.090;2024-02-23T05:01:43;99830.66;;;9.52;71.03
85922;BME280;76459;41.484;22.090;2024-02-23T05:04:09;99832.00;;;9.55;71.30
85922;BME280;76459;41.484;22.090;2024-02-23T05:06:34;99837.22;;;9.57;71.40
85922;BME280;76459;41.484;22.090;2024-02-23T05:09:01;99836.94;;;9.58;71.17
85922;BME280;76459;41.484;22.090;2024-02-23T05:11:27;99832.25;;;9.59;71.09
85922;BME280;76459;41.484;22.090;2024-02-23T05:13:53;99830.38;;;9.54;71.01
85922;BME280;76459;41.484;22.090;2024-02-23T05:16:18;99847.13;;;9.58;71.20
85922;BME280;76459;41.484;22.090;2024-02-23T05:18:44;99839.97;;;9.57;70.72
85922;BME280;76459;41.484;22.090;2024-02-23T05:21:14;99856.44;;;9.67;71.24
85922;BME280;76459;41.484;22.090;2024-02-23T05:23:39;99856.16;;;9.68;70.94
85922;BME280;76459;41.484;22.090;2024-02-23T05:26:05;99861.13;;;9.66;71.09
85922;BME280;76459;41.484;22.090;2024-02-23T05:28:31;99866.38;;;9.63;71.57
85922;BME280;76459;41.484;22.090;2024-02-23T05:30:56;99866.31;;;9.68;71.37
85922;BME280;76459;41.484;22.090;2024-02-23T05:33:22;99866.31;;;9.73;71.27
85922;BME280;76459;41.484;22.090;2024-02-23T05:35:48;99876.75;;;9.76;70.92
85922;BME280;76459;41.484;22.090;2024-02-23T05:38:14;99884.44;;;9.79;70.34
85922;BME280;76459;41.484;22.090;2024-02-23T05:40:40;99900.41;;;9.82;69.41
85922;BME280;76459;41.484;22.090;2024-02-23T05:43:06;99868.78;;;9.74;69.55
85922;BME280;76459;41.484;22.090;2024-02-23T05:45:32;99870.97;;;9.77;69.24
85922;BME280;76459;41.484;22.090;2024-02-23T05:47:57;99873.72;;;9.77;69.29
85922;BME280;76459;41.484;22.090;2024-02-23T05:50:23;99869.84;;;9.78;69.27
85922;BME280;76459;41.484;22.090;2024-02-23T05:52:49;99861.94;;;9.72;69.96
85922;BME280;76459;41.484;22.090;2024-02-23T05:55:14;99867.38;;;9.82;70.72
85922;BME280;76459;41.484;22.090;2024-02-23T05:57:40;99870.38;;;9.86;71.24
85922;BME280;76459;41.484;22.090;2024-02-23T06:00:06;99872.31;;;9.85;71.29
85922;BME280;76459;41.484;22.090;2024-02-23T06:02:33;99876.19;;;9.84;71.80
85922;BME280;76459;41.484;22.090;2024-02-23T06:04:58;99872.59;;;9.84;71.75
85922;BME280;76459;41.484;22.090;2024-02-23T06:07:24;99858.31;;;9.81;72.01
85922;BME280;76459;41.484;22.090;2024-02-23T06:09:58;99879.41;;;10.01;71.55
85922;BME280;76459;41.484;22.090;2024-02-23T06:12:24;99869.72;;;10.09;71.07
85922;BME280;76459;41.484;22.090;2024-02-23T06:14:51;99874.88;;;10.26;70.66
85922;BME280;76459;41.484;22.090;2024-02-23T06:17:17;99875.94;;;10.35;70.32
85922;BME280;76459;41.484;22.090;2024-02-23T06:19:43;99882.44;;;10.49;70.06
85922;BME280;76459;41.484;22.090;2024-02-23T06:22:09;99878.78;;;10.59;69.97
85922;BME280;76459;41.484;22.090;2024-02-23T06:24:37;99884.44;;;10.78;69.56
85922;BME280;76459;41.484;22.090;2024-02-23T06:27:03;99876.00;;;10.93;68.58
85922;BME280;76459;41.484;22.090;2024-02-23T06:29:29;99882.81;;;11.06;68.46
85922;BME280;76459;41.484;22.090;2024-02-23T06:31:55;99883.28;;;11.13;67.75
85922;BME280;76459;41.484;22.090;2024-02-23T06:34:21;99882.94;;;11.19;67.04
85922;BME280;76459;41.484;22.090;2024-02-23T06:36:47;99881.69;;;11.36;66.67
85922;BME280;76459;41.484;22.090;2024-02-23T06:39:14;99877.84;;;11.32;66.91
85922;BME280;76459;41.484;22.090;2024-02-23T06:41:43;99877.28;;;11.35;67.07
85922;BME280;76459;41.484;22.090;2024-02-23T06:44:09;99871.13;;;11.43;66.63
85922;BME280;76459;41.484;22.090;2024-02-23T06:46:34;99878.53;;;11.47;66.61
85922;BME280;76459;41.484;22.090;2024-02-23T06:49:00;99876.59;;;11.48;66.25
85922;BME280;76459;41.484;22.090;2024-02-23T06:51:26;99884.28;;;11.51;66.33
85922;BME280;76459;41.484;22.090;2024-02-23T06:53:51;99889.44;;;11.58;66.35
85922;BME280;76459;41.484;22.090;2024-02-23T06:56:17;99876.53;;;11.53;66.63
85922;BME280;76459;41.484;22.090;2024-02-23T06:58:42;99863.97;;;11.66;66.31
85922;BME280;76459;41.484;22.090;2024-02-23T07:01:08;99872.13;;;11.76;65.93
85922;BME280;76459;41.484;22.090;2024-02-23T07:03:38;99870.09;;;11.87;65.49
85922;BME280;76459;41.484;22.090;2024-02-23T07:06:05;99868.97;;;11.88;65.35
85922;BME280;76459;41.484;22.090;2024-02-23T07:08:30;99876.97;;;11.89;65.54
85922;BME280;76459;41.484;22.090;2024-02-23T07:10:56;99871.66;;;11.93;65.26
85922;BME280;76459;41.484;22.090;2024-02-23T07:13:22;99868.25;;;12.01;65.13
85922;BME280;76459;41.484;22.090;2024-02-23T07:15:47;99870.81;;;12.16;64.77
85922;BME280;76459;41.484;22.090;2024-02-23T07:18:13;99872.59;;;12.26;64.37
85922;BME280;76459;41.484;22.090;2024-02-23T07:20:39;99877.59;;;12.24;64.29
85922;BME280;76459;41.484;22.090;2024-02-23T07:23:05;99872.81;;;12.29;64.16
85922;BME280;76459;41.484;22.090;2024-02-23T07:25:31;99876.78;;;12.42;63.70
85922;BME280;76459;41.484;22.090;2024-02-23T07:27:57;99876.84;;;12.56;62.94
85922;BME280;76459;41.484;22.090;2024-02-23T07:30:22;99830.78;;;12.51;62.90
85922;BME280;76459;41.484;22.090;2024-02-23T07:32:48;99851.28;;;12.64;62.52
85922;BME280;76459;41.484;22.090;2024-02-23T07:35:14;99868.47;;;12.80;62.48
85922;BME280;76459;41.484;22.090;2024-02-23T07:37:39;99857.56;;;12.69;62.38
85922;BME280;76459;41.484;22.090;2024-02-23T07:40:06;99861.81;;;12.62;62.86
85922;BME280;76459;41.484;22.090;2024-02-23T07:42:32;99855.31;;;12.72;62.52
85922;BME280;76459;41.484;22.090;2024-02-23T07:44:58;99848.97;;;12.71;62.41
85922;BME280;76459;41.484;22.090;2024-02-23T07:47:24;99868.81;;;12.92;62.01
85922;BME280;76459;41.484;22.090;2024-02-23T07:49:49;99860.34;;;13.02;61.32
85922;BME280;76459;41.484;22.090;2024-02-23T07:52:16;99855.94;;;13.01;61.27
85922;BME280;76459;41.484;22.090;2024-02-23T07:54:42;99872.97;;;13.08;61.00
85922;BME280;76459;41.484;22.090;2024-02-23T07:57:07;99848.94;;;13.36;60.38
85922;BME280;76459;41.484;22.090;2024-02-23T07:59:33;99854.69;;;13.40;60.01
85922;BME280;76459;41.484;22.090;2024-02-23T08:01:59;99846.28;;;13.45;59.53
85922;BME280;76459;41.484;22.090;2024-02-23T08:04:24;99847.09;;;13.32;59.74
85922;BME280;76459;41.484;22.090;2024-02-23T08:06:50;99843.13;;;13.51;59.34
85922;BME280;76459;41.484;22.090;2024-02-23T08:09:16;99838.09;;;13.67;58.63
85922;BME280;76459;41.484;22.090;2024-02-23T08:11:43;99840.63;;;13.77;58.76
85922;BME280;76459;41.484;22.090;2024-02-23T08:14:09;99850.09;;;13.63;58.39
85922;BME280;76459;41.484;22.090;2024-02-23T08:16:34;99852.34;;;13.61;58.03
85922;BME280;76459;41.484;22.090;2024-02-23T08:19:00;99855.41;;;13.73;58.26
85922;BME280;76459;41.484;22.090;2024-02-23T08:21:26;99858.47;;;13.85;58.19
85922;BME280;76459;41.484;22.090;2024-02-23T08:23:52;99880.94;;;13.97;57.60
85922;BME280;76459;41.484;22.090;2024-02-23T08:26:18;99861.75;;;14.01;57.63
85922;BME280;76459;41.484;22.090;2024-02-23T08:28:43;99865.72;;;14.08;57.59
85922;BME280;76459;41.484;22.090;2024-02-23T08:31:09;99871.56;;;14.21;56.88
85922;BME280;76459;41.484;22.090;2024-02-23T08:33:35;99876.75;;;14.00;57.39
85922;BME280;76459;41.484;22.090;2024-02-23T08:36:00;99850.25;;;14.07;57.70
85922;BME280;76459;41.484;22.090;2024-02-23T08:38:26;99862.50;;;14.29;57.04
85922;BME280;76459;41.484;22.090;2024-02-23T08:40:52;99824.56;;;14.16;56.79
85922;BME280;76459;41.484;22.090;2024-02-23T08:43:17;99846.28;;;14.36;57.03
85922;BME280;76459;41.484;22.090;2024-02-23T08:45:43;99844.44;;;14.45;56.20
85922;BME280;76459;41.484;22.090;2024-02-23T08:48:08;99847.16;;;14.59;55.81
85922;BME280;76459;41.484;22.090;2024-02-23T08:50:34;99843.25;;;14.82;55.22
85922;BME280;76459;41.484;22.090;2024-02-23T08:53:00;99838.09;;;14.67;55.26
85922;BME280;76459;41.484;22.090;2024-02-23T08:55:25;99844.00;;;14.52;55.39
85922;BME280;76459;41.484;22.090;2024-02-23T08:57:51;99840.56;;;14.32;55.80
85922;BME280;76459;41.484;22.090;2024-02-23T09:00:17;99841.41;;;14.55;55.99
85922;BME280;76459;41.484;22.090;2024-02-23T09:02:42;99843.69;;;14.53;56.04
85922;BME280;76459;41.484;22.090;2024-02-23T09:05:08;99829.84;;;14.53;55.67
85922;BME280;76459;41.484;22.090;2024-02-23T09:07:35;99831.53;;;14.63;55.51
85922;BME280;76459;41.484;22.090;2024-02-23T09:10:01;99824.09;;;14.72;55.53
85922;BME280;76459;41.484;22.090;2024-02-23T09:12:27;99854.03;;;14.61;55.22
85922;BME280;76459;41.484;22.090;2024-02-23T09:14:53;99829.94;;;14.70;55.35
85922;BME280;76459;41.484;22.090;2024-02-23T09:17:18;99818.84;;;14.93;54.96
85922;BME280;76459;41.484;22.090;2024-02-23T09:19:47;99830.72;;;14.85;55.00
85922;BME280;76459;41.484;22.090;2024-02-23T09:22:13;99811.53;;;14.97;54.62
85922;BME280;76459;41.484;22.090;2024-02-23T09:24:42;99810.16;;;15.17;53.78
85922;BME280;76459;41.484;22.090;2024-02-23T09:27:08;99777.09;;;14.98;53.46
85922;BME280;76459;41.484;22.090;2024-02-23T09:29:34;99819.19;;;15.22;54.08
85922;BME280;76459;41.484;22.090;2024-02-23T09:32:00;99802.34;;;15.19;53.67
85922;BME280;76459;41.484;22.090;2024-02-23T09:34:26;99802.81;;;15.21;53.45
85922;BME280;76459;41.484;22.090;2024-02-23T09:36:51;99810.06;;;15.31;53.71
85922;BME280;76459;41.484;22.090;2024-02-23T09:39:17;99803.28;;;15.45;53.36
85922;BME280;76459;41.484;22.090;2024-02-23T09:41:43;99791.19;;;15.50;52.91
85922;BME280;76459;41.484;22.090;2024-02-23T09:44:09;99789.88;;;15.47;53.17
85922;BME280;76459;41.484;22.090;2024-02-23T09:46:40;99800.44;;;15.68;52.49
85922;BME280;76459;41.484;22.090;2024-02-23T09:49:05;99794.38;;;15.66;52.84
85922;BME280;76459;41.484;22.090;2024-02-23T09:51:33;99790.97;;;15.77;52.32
85922;BME280;76459;41.484;22.090;2024-02-23T09:54:01;99794.38;;;15.66;53.02
85922;BME280;76459;41.484;22.090;2024-02-23T09:56:28;99790.50;;;15.75;52.73
85922;BME280;76459;41.484;22.090;2024-02-23T09:59:00;99792.63;;;15.87;52.25
85922;BME280;76459;41.484;22.090;2024-02-23T10:01:31;99801.81;;;16.13;51.69
85922;BME280;76459;41.484;22.090;2024-02-23T10:04:01;99796.56;;;16.12;51.75
85922;BME280;76459;41.484;22.090;2024-02-23T10:06:32;99786.97;;;16.35;51.26
85922;BME280;76459;41.484;22.090;2024-02-23T10:08:57;99793.63;;;16.34;50.71
85922;BME280;76459;41.484;22.090;2024-02-23T10:11:24;99781.56;;;16.48;50.41
85922;BME280;76459;41.484;22.090;2024-02-23T10:13:51;99793.81;;;16.47;49.91
85922;BME280;76459;41.484;22.090;2024-02-23T10:16:18;99787.25;;;16.51;50.22
85922;BME280;76459;41.484;22.090;2024-02-23T10:18:47;99783.00;;;16.54;50.07
85922;BME280;76459;41.484;22.090;2024-02-23T10:21:17;99772.69;;;16.63;49.62
85922;BME280;76459;41.484;22.090;2024-02-23T10:23:47;99766.63;;;16.61;50.25
85922;BME280;76459;41.484;22.090;2024-02-23T10:26:13;99767.78;;;16.60;49.77
85922;BME280;76459;41.484;22.090;2024-02-23T10:28:45;99763.88;;;16.52;50.22
85922;BME280;76459;41.484;22.090;2024-02-23T10:31:11;99768.94;;;16.59;49.36
85922;BME280;76459;41.484;22.090;2024-02-23T10:33:38;99765.50;;;16.70;49.57
85922;BME280;76459;41.484;22.090;2024-02-23T10:36:05;99769.56;;;16.64;49.34
85922;BME280;76459;41.484;22.090;2024-02-23T10:38:35;99765.84;;;16.69;49.83
85922;BME280;76459;41.484;22.090;2024-02-23T10:41:05;99772.03;;;16.66;49.00
85922;BME280;76459;41.484;22.090;2024-02-23T10:43:41;99757.47;;;16.52;49.55
85922;BME280;76459;41.484;22.090;2024-02-23T10:46:11;99753.59;;;16.27;50.05
85922;BME280;76459;41.484;22.090;2024-02-23T10:48:40;99759.47;;;16.17;49.89
85922;BME280;76459;41.484;22.090;2024-02-23T10:51:07;99757.03;;;16.06;50.39
85922;BME280;76459;41.484;22.090;2024-02-23T10:53:34;99745.09;;;15.97;50.69
85922;BME280;76459;41.484;22.090;2024-02-23T10:56:03;99761.09;;;16.00;50.42
85922;BME280;76459;41.484;22.090;2024-02-23T10:58:30;99749.84;;;16.05;50.65
85922;BME280;76459;41.484;22.090;2024-02-23T11:01:00;99734.44;;;16.34;50.38
85922;BME280;76459;41.484;22.090;2024-02-23T11:03:32;99733.59;;;16.51;49.45
85922;BME280;76459;41.484;22.090;2024-02-23T11:06:00;99724.31;;;16.29;49.77
85922;BME280;76459;41.484;22.090;2024-02-23T11:08:29;99737.88;;;16.31;49.79
85922;BME280;76459;41.484;22.090;2024-02-23T11:10:55;99734.94;;;16.27;49.45
85922;BME280;76459;41.484;22.090;2024-02-23T11:13:31;99725.47;;;16.37;49.30
85922;BME280;76459;41.484;22.090;2024-02-23T11:16:03;99721.81;;;16.54;48.85
85922;BME280;76459;41.484;22.090;2024-02-23T11:18:30;99741.13;;;16.50;49.36
85922;BME280;76459;41.484;22.090;2024-02-23T11:21:03;99716.94;;;16.42;48.95
85922;BME280;76459;41.484;22.090;2024-02-23T11:23:43;99709.06;;;16.44;48.89
85922;BME280;76459;41.484;22.090;2024-02-23T11:26:10;99719.03;;;16.54;48.60
85922;BME280;76459;41.484;22.090;2024-02-23T11:29:11;99707.63;;;16.38;48.67
85922;BME280;76459;41.484;22.090;2024-02-23T11:31:44;99711.72;;;16.32;49.40
85922;BME280;76459;41.484;22.090;2024-02-23T11:34:11;99706.47;;;16.39;49.99
85922;BME280;76459;41.484;22.090;2024-02-23T11:36:38;99712.53;;;16.41;49.65
85922;BME280;76459;41.484;22.090;2024-02-23T11:39:05;99709.53;;;16.55;49.57
85922;BME280;76459;41.484;22.090;2024-02-23T11:41:31;99706.94;;;16.58;49.56
85922;BME280;76459;41.484;22.090;2024-02-23T11:43:56;99707.91;;;16.71;49.22
85922;BME280;76459;41.484;22.090;2024-02-23T11:46:23;99738.94;;;16.90;48.63
85922;BME280;76459;41.484;22.090;2024-02-23T11:48:49;99695.25;;;16.82;48.88
85922;BME280;76459;41.484;22.090;2024-02-23T11:51:22;99700.81;;;16.91;48.38
85922;BME280;76459;41.484;22.090;2024-02-23T11:53:49;99694.38;;;16.99;48.03
85922;BME280;76459;41.484;22.090;2024-02-23T11:56:15;99686.22;;;16.94;47.87
85922;BME280;76459;41.484;22.090;2024-02-23T11:58:41;99714.38;;;16.92;47.60
85922;BME280;76459;41.484;22.090;2024-02-23T12:01:07;99692.69;;;16.68;48.45
85922;BME280;76459;41.484;22.090;2024-02-23T12:03:33;99672.91;;;16.53;49.15
85922;BME280;76459;41.484;22.090;2024-02-23T12:06:00;99665.69;;;16.60;49.17
85922;BME280;76459;41.484;22.090;2024-02-23T12:08:27;99681.72;;;16.72;48.92
85922;BME280;76459;41.484;22.090;2024-02-23T12:10:56;99670.06;;;16.87;48.54
85922;BME280;76459;41.484;22.090;2024-02-23T12:13:26;99658.22;;;16.99;48.35
85922;BME280;76459;41.484;22.090;2024-02-23T12:15:53;99673.56;;;17.05;48.10
85922;BME280;76459;41.484;22.090;2024-02-23T12:18:22;99654.13;;;16.96;47.55
85922;BME280;76459;41.484;22.090;2024-02-23T12:21:09;99650.47;;;17.05;48.15
85922;BME280;76459;41.484;22.090;2024-02-23T12:23:52;99656.34;;;17.12;47.83
85922;BME280;76459;41.484;22.090;2024-02-23T12:26:18;99653.84;;;17.19;47.58
85922;BME280;76459;41.484;22.090;2024-02-23T12:28:44;99645.06;;;17.08;47.88
85922;BME280;76459;41.484;22.090;2024-02-23T12:31:11;99649.28;;;17.14;48.15
85922;BME280;76459;41.484;22.090;2024-02-23T12:33:38;99641.91;;;17.18;47.52
85922;BME280;76459;41.484;22.090;2024-02-23T12:36:07;99648.16;;;17.36;47.36
85922;BME280;76459;41.484;22.090;2024-02-23T12:38:34;99643.63;;;17.32;46.96
85922;BME280;76459;41.484;22.090;2024-02-23T12:41:01;99640.47;;;17.33;47.37
85922;BME280;76459;41.484;22.090;2024-02-23T12:43:28;99626.78;;;17.28;47.52
85922;BME280;76459;41.484;22.090;2024-02-23T12:45:54;99646.69;;;17.09;48.02
85922;BME280;76459;41.484;22.090;2024-02-23T12:48:20;99633.97;;;16.99;48.13
85922;BME280;76459;41.484;22.090;2024-02-23T12:50:46;99620.91;;;16.91;48.96
85922;BME280;76459;41.484;22.090;2024-02-23T12:53:37;99616.50;;;16.90;48.87